Hauptseite
METAR-TAF:

METAR-TAF

Flughäfen :

RAF Mount Pleasant

Stanley, Falklandinseln

Breite: 51-49S, Länge: 058-27W, Höhe: 74 m

Beobachtung

Neuester Wetterbericht von vor 24 Minuten, um 22:50 UTC
Wind 15 kt aus West/Nordwest
Temperatur 7°C
Luftfeuchtigkeit 81%
Luftdruck 1018 hPa
Sichtweite 10 km oder mehr
Leicht bewölkt in der Höhe von 1800 ft

METAR: EGYP 132250Z 30015KT 9999 FEW018 07/04 Q1018

Zeit: 20:14 (23:14 UTC)

Prognose

Neuester Wetterbericht von vor 3 Stunden und 48 Minuten, um 19:26 UTC
Gültige Prognose vom 13 um 21 UTC bis 14 um 15 UTC
Wind 18 kt aus West/Nordwest, Böen bis zu 28 kt
Sichtweite 10 km oder mehr
Leicht bewölkt in der Höhe von 1000 ft

TAF: EGYP 131926Z 1321/1415 30018G28KT 9999 FEW010

Wetterbeobachtungen und Prognosen von mehr als 4000 Flughäfen (METAR und TAF Bericht).

Die verfügbaren Stationen werden durch gelbe und rote Markierungen auf der Karte dargestellt.

Führen Sie die Maus auf sie, um den Namen der Station zu sehen.

Darauf klicken, um die Beobachtung von Wetterbeobachtungen und Prognosen zu sehen.

Um die Karte zu ändern : klicken Sie auf den grünen Tasten mit einem schwarzen Kreuz Zum Vergrößern, auf den grünen Button mit einem Gedankenstrich zu verkleinern, oder auf die grünen Pfeile für benachbarte Karten.


METAR-TAF: